Adams, Indiana
Current Conditions -  °F | °C
As of 8:58 PM on Sunday 25 Jan 2015 (Local Time) from KBAK Reporting Station
Light Snow Light Snow  
Wind Chill: 16°   Ceiling: 800
Heat Index: 28°   Visibility: 7mi
Dew Point: 28°   Wind: 18mph
Humidity: 100%   Direction: 20°NNE
Pressure: 29.75"   Gusts: 28mph
Location:  39.3206°N, 85.4768°W
Report Text: KBAK 260158Z 02016G24KT 7SM -SN BKN008 OVC015 M02/M02 A2975
Loading
Personal Weather Stations






























Interactive Weather Map New forecast layout! Learn more

10-Day Weather Forecast

Advertisements
Track Severe Weather on mobile